createdAt,value
2018-12-30T00:01:15.547Z,17.75
2018-12-30T00:03:44.090Z,16.57
2018-12-30T00:06:12.742Z,16.50
2018-12-30T00:08:41.354Z,18.00
2018-12-30T00:11:09.846Z,18.10
2018-12-30T00:13:38.352Z,16.95
2018-12-30T00:16:06.867Z,17.77
2018-12-30T00:18:35.379Z,17.57
2018-12-30T00:21:08.952Z,18.40
2018-12-30T00:23:32.395Z,18.55
2018-12-30T00:26:00.918Z,18.32
2018-12-30T00:28:29.382Z,18.10
2018-12-30T00:30:58.162Z,20.20
2018-12-30T00:33:26.970Z,18.90
2018-12-30T00:35:55.514Z,18.17
2018-12-30T00:38:23.946Z,17.82
2018-12-30T00:40:52.650Z,18.50
2018-12-30T00:43:21.402Z,19.20
2018-12-30T00:45:49.910Z,20.20
2018-12-30T00:48:18.417Z,19.10
2018-12-30T00:50:46.898Z,19.73
2018-12-30T00:53:15.894Z,19.92
2018-12-30T00:55:44.458Z,20.50
2018-12-30T00:58:13.082Z,21.27
2018-12-30T01:00:41.542Z,20.32
2018-12-30T01:03:10.634Z,19.07
2018-12-30T01:05:39.126Z,21.47
2018-12-30T01:08:07.870Z,21.68
2018-12-30T01:10:36.342Z,21.62
2018-12-30T01:13:05.038Z,21.62
2018-12-30T01:15:33.857Z,22.62
2018-12-30T01:18:02.342Z,17.87
2018-12-30T01:20:30.982Z,21.23
2018-12-30T01:22:59.482Z,19.75
2018-12-30T01:25:28.397Z,20.52
2018-12-30T01:27:56.885Z,20.37
2018-12-30T01:30:25.409Z,21.10
2018-12-30T01:32:53.877Z,21.62
2018-12-30T01:35:22.368Z,22.13
2018-12-30T01:37:50.904Z,20.85
2018-12-30T01:40:19.670Z,21.50
2018-12-30T01:42:48.704Z,19.85
2018-12-30T01:45:17.381Z,21.00
2018-12-30T01:47:45.857Z,22.73
2018-12-30T01:50:14.959Z,21.12
2018-12-30T01:52:43.612Z,22.30
2018-12-30T01:55:12.072Z,22.13
2018-12-30T01:57:40.824Z,20.88
2018-12-30T02:00:09.749Z,23.37
2018-12-30T02:02:38.897Z,22.70
2018-12-30T02:05:07.397Z,22.07
2018-12-30T02:07:35.876Z,21.77
2018-12-30T02:10:04.773Z,22.48
2018-12-30T02:12:33.292Z,23.15
2018-12-30T02:15:05.124Z,23.87
2018-12-30T02:17:33.827Z,22.37
2018-12-30T02:20:02.342Z,22.95
2018-12-30T02:22:31.444Z,22.13
2018-12-30T02:24:59.989Z,23.60
2018-12-30T02:27:28.452Z,23.38
2018-12-30T02:29:57.279Z,24.80
2018-12-30T02:32:25.821Z,23.53
2018-12-30T02:34:54.605Z,25.33
2018-12-30T02:37:23.513Z,23.43
2018-12-30T02:39:52.005Z,23.27
2018-12-30T02:42:20.964Z,23.93
2018-12-30T02:44:49.445Z,23.50
2018-12-30T02:47:18.032Z,22.77
2018-12-30T02:49:46.716Z,24.18
2018-12-30T02:52:15.398Z,25.32
2018-12-30T02:54:44.589Z,23.87
2018-12-30T02:57:13.759Z,24.10
2018-12-30T02:59:42.864Z,23.42
2018-12-30T03:02:11.332Z,23.05
2018-12-30T03:04:39.864Z,22.48
2018-12-30T03:07:08.392Z,23.45
2018-12-30T03:09:36.885Z,22.80
2018-12-30T03:12:05.448Z,24.63
2018-12-30T03:14:34.196Z,23.27
2018-12-30T03:17:03.482Z,23.83
2018-12-30T03:19:31.944Z,23.47
2018-12-30T03:22:00.436Z,23.05
2018-12-30T03:24:29.337Z,22.13
2018-12-30T03:26:57.792Z,22.82
2018-12-30T03:29:26.265Z,24.82
2018-12-30T03:31:54.706Z,23.22
2018-12-30T03:34:23.213Z,24.15
2018-12-30T03:36:51.673Z,24.35
2018-12-30T03:39:20.130Z,23.45
2018-12-30T03:41:48.893Z,24.18
2018-12-30T03:44:17.328Z,23.73
2018-12-30T03:46:45.755Z,22.90
2018-12-30T03:49:14.464Z,23.95
2018-12-30T03:51:42.937Z,23.15
2018-12-30T03:54:11.394Z,23.05
2018-12-30T03:56:39.856Z,24.82
2018-12-30T03:59:08.353Z,25.37
2018-12-30T04:01:36.808Z,23.75
2018-12-30T04:04:05.356Z,23.77
2018-12-30T04:06:33.876Z,23.02
2018-12-30T04:09:02.696Z,23.80
2018-12-30T04:11:31.504Z,24.18
2018-12-30T04:14:00.296Z,22.05
2018-12-30T04:16:28.740Z,23.75
2018-12-30T04:18:57.185Z,22.05
2018-12-30T04:21:25.677Z,23.18
2018-12-30T04:23:54.628Z,22.80
2018-12-30T04:33:07.320Z,22.63
2018-12-30T04:35:35.797Z,22.90
2018-12-30T04:38:04.250Z,25.80
2018-12-30T04:40:32.745Z,24.05
2018-12-30T04:43:01.577Z,23.55
2018-12-30T04:45:30.408Z,23.85
2018-12-30T04:47:58.894Z,24.67
2018-12-30T04:50:27.562Z,24.40
2018-12-30T04:52:56.565Z,23.25
2018-12-30T04:55:25.256Z,24.13
2018-12-30T04:57:54.177Z,23.20
2018-12-30T05:00:22.728Z,21.70
2018-12-30T05:02:51.928Z,22.98
2018-12-30T05:05:20.387Z,22.32
2018-12-30T05:07:48.844Z,23.27
2018-12-30T05:10:17.348Z,22.05
2018-12-30T05:12:46.116Z,21.85
2018-12-30T05:15:14.560Z,22.30
2018-12-30T05:17:43.028Z,24.10
2018-12-30T05:20:11.713Z,21.75
2018-12-30T05:22:40.190Z,22.67
2018-12-30T05:25:08.692Z,22.85
2018-12-30T05:27:37.172Z,22.30
2018-12-30T05:30:06.148Z,21.55
2018-12-30T05:32:34.719Z,20.60
2018-12-30T05:35:03.273Z,20.20
2018-12-30T05:37:31.720Z,20.88
2018-12-30T05:40:00.288Z,21.90
2018-12-30T05:42:28.760Z,21.00
2018-12-30T05:44:57.376Z,21.85
2018-12-30T05:47:25.824Z,21.45
2018-12-30T05:49:54.295Z,20.17
2018-12-30T05:52:22.779Z,21.02
2018-12-30T05:54:51.731Z,21.25
2018-12-30T05:57:20.287Z,20.70
2018-12-30T05:59:48.767Z,23.00
2018-12-30T06:02:17.224Z,21.05
2018-12-30T06:04:45.735Z,21.50
2018-12-30T06:07:14.531Z,22.35
2018-12-30T06:09:43.361Z,22.20
2018-12-30T06:12:11.833Z,21.05
2018-12-30T06:14:40.430Z,21.50
2018-12-30T06:17:09.198Z,21.55
2018-12-30T06:19:37.647Z,25.17
2018-12-30T06:22:06.095Z,21.82
2018-12-30T06:24:34.607Z,25.15
2018-12-30T06:27:03.167Z,23.98
2018-12-30T06:29:31.879Z,24.65
2018-12-30T06:32:01.307Z,24.12
2018-12-30T06:34:29.932Z,23.70
2018-12-30T06:36:58.603Z,22.22
2018-12-30T06:39:27.355Z,24.90
2018-12-30T06:41:55.799Z,24.83
2018-12-30T06:44:24.266Z,26.68
2018-12-30T06:46:52.766Z,25.27
2018-12-30T06:49:21.542Z,25.88
2018-12-30T06:51:50.344Z,25.25
2018-12-30T06:54:18.943Z,26.73
2018-12-30T06:56:48.067Z,25.88
2018-12-30T06:59:16.602Z,27.45
2018-12-30T07:01:45.090Z,25.97
2018-12-30T07:04:13.546Z,26.12
2018-12-30T07:06:42.082Z,28.03
2018-12-30T07:09:10.930Z,25.77
2018-12-30T07:11:39.354Z,27.70
2018-12-30T07:14:08.683Z,29.48
2018-12-30T07:16:36.338Z,28.00
2018-12-30T07:19:04.942Z,26.62
2018-12-30T07:21:33.482Z,26.75
2018-12-30T07:24:01.966Z,27.82
2018-12-30T07:26:30.402Z,28.50
2018-12-30T07:28:59.096Z,27.53
2018-12-30T07:31:27.590Z,29.35
2018-12-30T07:33:56.051Z,29.67
2018-12-30T07:36:24.502Z,27.32
2018-12-30T07:38:54.180Z,29.92
2018-12-30T07:41:21.964Z,27.65
2018-12-30T07:43:50.551Z,27.77
2018-12-30T07:46:19.046Z,27.77
2018-12-30T07:48:47.787Z,26.70
2018-12-30T07:51:16.311Z,26.90
2018-12-30T07:53:45.579Z,25.17
2018-12-30T07:56:14.418Z,26.60
2018-12-30T07:58:42.882Z,25.68
2018-12-30T08:01:11.614Z,25.60
2018-12-30T08:03:40.114Z,26.62
2018-12-30T08:06:08.830Z,26.40
2018-12-30T08:08:37.302Z,25.85
2018-12-30T08:11:05.762Z,26.30
2018-12-30T08:13:34.583Z,27.22
2018-12-30T08:16:03.050Z,26.23
2018-12-30T08:18:31.595Z,25.60
2018-12-30T08:21:00.199Z,23.77
2018-12-30T08:23:28.632Z,24.63
2018-12-30T08:25:57.138Z,24.02
2018-12-30T08:28:26.679Z,22.73
2018-12-30T08:30:55.123Z,23.32
2018-12-30T08:33:23.586Z,26.37
2018-12-30T08:35:52.122Z,24.18
2018-12-30T08:38:20.588Z,26.55
2018-12-30T08:40:49.099Z,24.55
2018-12-30T08:43:18.898Z,23.15
2018-12-30T08:45:47.347Z,22.07
2018-12-30T08:48:16.522Z,25.67
2018-12-30T08:50:45.186Z,24.43
2018-12-30T08:53:13.626Z,21.48
2018-12-30T08:55:42.083Z,22.63
2018-12-30T09:04:57.743Z,19.75
2018-12-30T09:07:25.231Z,20.08
2018-12-30T09:09:54.059Z,21.97
2018-12-30T09:12:22.522Z,21.25
2018-12-30T09:14:50.955Z,18.30
2018-12-30T09:17:19.539Z,19.48
2018-12-30T09:19:48.096Z,19.65
2018-12-30T09:22:16.571Z,17.00
2018-12-30T09:24:45.077Z,15.85
2018-12-30T09:27:13.910Z,16.77
2018-12-30T09:29:42.499Z,18.15
2018-12-30T09:32:11.199Z,18.50
2018-12-30T09:34:39.663Z,20.82
2018-12-30T09:37:08.144Z,19.87
2018-12-30T09:39:36.611Z,19.50
2018-12-30T09:42:05.476Z,17.57
2018-12-30T09:44:34.039Z,19.00
2018-12-30T09:47:02.510Z,19.48
2018-12-30T09:49:31.026Z,19.57
2018-12-30T09:51:59.531Z,20.43
2018-12-30T09:54:27.978Z,19.45
2018-12-30T09:56:56.430Z,27.10
2018-12-30T09:59:25.160Z,25.95
2018-12-30T10:01:53.694Z,21.17
2018-12-30T10:04:22.515Z,23.42
2018-12-30T10:06:51.181Z,23.35
2018-12-30T10:09:19.733Z,24.98
2018-12-30T10:11:48.189Z,26.33
2018-12-30T10:14:16.679Z,24.10
2018-12-30T10:16:45.181Z,26.85
2018-12-30T10:19:14.465Z,23.40
2018-12-30T10:21:42.898Z,27.33
2018-12-30T10:24:11.481Z,25.25
2018-12-30T10:26:40.053Z,19.02
2018-12-30T10:29:08.505Z,22.37
2018-12-30T10:31:37.013Z,24.55
2018-12-30T10:34:05.441Z,24.32
2018-12-30T10:36:34.767Z,22.37
2018-12-30T10:39:04.389Z,24.20
2018-12-30T10:41:32.957Z,26.27
2018-12-30T10:44:01.420Z,25.90
2018-12-30T10:46:29.900Z,23.40
2018-12-30T10:48:58.360Z,22.82
2018-12-30T10:51:27.166Z,23.53
2018-12-30T10:54:00.666Z,24.80
2018-12-30T10:56:24.533Z,23.60
2018-12-30T10:58:53.120Z,25.93
2018-12-30T11:01:21.708Z,25.60
2018-12-30T11:03:50.161Z,26.73
2018-12-30T11:06:19.072Z,23.50
2018-12-30T11:08:47.569Z,24.37
2018-12-30T11:11:16.036Z,23.40
2018-12-30T11:13:44.617Z,20.57
2018-12-30T11:16:13.065Z,21.87
2018-12-30T11:18:41.517Z,23.02
2018-12-30T11:21:10.033Z,23.83
2018-12-30T11:23:39.238Z,21.13
2018-12-30T11:26:07.906Z,21.20
2018-12-30T11:28:36.917Z,18.55
2018-12-30T11:31:05.865Z,19.13
2018-12-30T11:33:34.366Z,15.87
2018-12-30T11:36:04.089Z,13.13
2018-12-30T11:38:32.678Z,15.63
2018-12-30T11:41:01.429Z,15.23
2018-12-30T11:43:30.641Z,14.70
2018-12-30T11:45:59.693Z,10.23
2018-12-30T11:48:28.369Z,12.78
2018-12-30T11:50:56.846Z,12.88
2018-12-30T11:53:26.747Z,10.90
2018-12-30T11:55:54.969Z,10.63
2018-12-30T11:58:23.489Z,10.10
2018-12-30T12:00:52.280Z,8.35
2018-12-30T12:03:20.758Z,9.77
2018-12-30T12:05:49.310Z,10.20
2018-12-30T12:08:18.972Z,9.00
2018-12-30T12:10:47.443Z,10.78
2018-12-30T12:13:16.297Z,12.90
2018-12-30T12:15:44.761Z,11.03
2018-12-30T12:18:13.221Z,11.03
2018-12-30T12:20:41.657Z,12.63
2018-12-30T12:23:10.223Z,13.75
2018-12-30T12:25:38.709Z,12.50
2018-12-30T12:28:07.624Z,11.12
2018-12-30T12:30:36.165Z,11.33
2018-12-30T12:33:05.084Z,10.77
2018-12-30T12:35:34.096Z,11.40
2018-12-30T12:38:02.741Z,10.27
2018-12-30T12:40:31.385Z,10.83
2018-12-30T12:43:00.313Z,10.60
2018-12-30T12:45:28.857Z,11.65
2018-12-30T12:47:57.444Z,11.28
2018-12-30T12:50:27.300Z,11.45
2018-12-30T12:52:55.908Z,10.90
2018-12-30T12:55:24.458Z,11.87
2018-12-30T12:57:53.236Z,12.13
2018-12-30T13:00:21.868Z,12.07
2018-12-30T13:02:50.560Z,11.37
2018-12-30T13:05:19.076Z,11.08
2018-12-30T13:07:47.841Z,11.50
2018-12-30T13:10:16.517Z,13.32
2018-12-30T13:12:45.273Z,13.33
2018-12-30T13:15:13.813Z,11.17
2018-12-30T13:17:42.664Z,11.95
2018-12-30T13:20:11.512Z,13.10
2018-12-30T13:22:40.054Z,12.55
2018-12-30T13:25:08.719Z,12.17
2018-12-30T13:27:37.231Z,14.33
2018-12-30T13:30:06.592Z,15.57
2018-12-30T13:32:35.443Z,16.12
2018-12-30T13:35:04.710Z,15.87
2018-12-30T13:37:33.201Z,13.80
2018-12-30T13:40:02.250Z,14.30
2018-12-30T13:42:31.046Z,16.13
2018-12-30T13:44:59.530Z,16.17
2018-12-30T13:47:28.011Z,18.33
2018-12-30T13:49:56.843Z,16.77
2018-12-30T13:52:25.295Z,16.52
2018-12-30T13:54:54.044Z,16.03
2018-12-30T13:57:22.779Z,17.57
2018-12-30T13:59:51.307Z,20.03
2018-12-30T14:02:19.959Z,21.37
2018-12-30T14:04:48.686Z,22.63
2018-12-30T14:07:17.338Z,21.37
2018-12-30T14:09:45.794Z,23.07
2018-12-30T14:12:14.518Z,21.70
2018-12-30T14:14:43.124Z,21.40
2018-12-30T14:17:11.684Z,21.23
2018-12-30T14:19:40.171Z,24.20
2018-12-30T14:22:08.919Z,24.50
2018-12-30T14:24:38.318Z,23.55
2018-12-30T14:27:08.023Z,24.40
2018-12-30T14:29:37.107Z,25.47
2018-12-30T14:32:05.654Z,24.65
2018-12-30T14:34:34.114Z,25.73
2018-12-30T14:37:02.866Z,24.80
2018-12-30T14:39:31.382Z,26.60
2018-12-30T14:41:59.838Z,24.90
2018-12-30T14:44:28.306Z,25.57
2018-12-30T14:46:56.870Z,25.52
2018-12-30T14:49:25.538Z,28.35
2018-12-30T14:51:53.988Z,26.37
2018-12-30T14:54:22.525Z,33.63
2018-12-30T14:56:51.378Z,39.25
2018-12-30T14:59:19.866Z,34.03
2018-12-30T15:01:48.507Z,31.03
2018-12-30T15:04:17.062Z,30.02
2018-12-30T15:06:45.755Z,29.45
2018-12-30T15:09:14.831Z,28.95
2018-12-30T15:11:43.514Z,30.32
2018-12-30T15:14:12.198Z,29.60
2018-12-30T15:16:41.110Z,28.87
2018-12-30T15:19:09.709Z,30.30
2018-12-30T15:23:08.090Z,30.02
2018-12-30T15:25:37.126Z,24.57
2018-12-30T15:28:06.005Z,26.23
2018-12-30T15:30:35.322Z,21.37
2018-12-30T15:33:03.901Z,21.43
2018-12-30T15:35:32.378Z,19.65
2018-12-30T15:38:00.921Z,17.40
2018-12-30T15:40:29.394Z,19.77
2018-12-30T15:42:58.159Z,26.90
2018-12-30T15:45:26.661Z,17.98
2018-12-30T15:47:55.586Z,15.95
2018-12-30T15:50:24.160Z,13.83
2018-12-30T15:52:52.972Z,11.87
2018-12-30T15:55:21.480Z,14.03
2018-12-30T15:57:50.121Z,12.65
2018-12-30T16:00:18.602Z,10.63
2018-12-30T16:02:47.364Z,12.53
2018-12-30T16:05:16.013Z,10.43
2018-12-30T16:07:44.828Z,8.05
2018-12-30T16:10:13.404Z,8.00
2018-12-30T16:12:41.927Z,6.78
2018-12-30T16:15:10.473Z,8.70
2018-12-30T16:17:39.075Z,7.90
2018-12-30T16:20:08.907Z,9.35
2018-12-30T16:22:37.600Z,9.43
2018-12-30T16:25:06.467Z,9.70
2018-12-30T16:27:35.703Z,8.90
2018-12-30T16:30:05.015Z,12.07
2018-12-30T16:32:33.507Z,12.33
2018-12-30T16:35:02.180Z,10.13
2018-12-30T16:37:30.887Z,11.28
2018-12-30T16:39:59.360Z,11.00
2018-12-30T16:42:27.820Z,12.83
2018-12-30T16:44:56.327Z,13.37
2018-12-30T16:47:24.876Z,6.87
2018-12-30T16:49:53.363Z,5.83
2018-12-30T16:52:21.811Z,6.75
2018-12-30T16:54:50.267Z,5.00
2018-12-30T16:57:19.015Z,6.05
2018-12-30T16:59:47.487Z,6.72
2018-12-30T17:02:15.963Z,5.12
2018-12-30T17:04:44.471Z,5.57
2018-12-30T17:07:13.319Z,4.67
2018-12-30T17:09:43.156Z,4.93
2018-12-30T17:12:11.879Z,4.67
2018-12-30T17:14:40.311Z,5.03
2018-12-30T17:17:08.902Z,4.20
2018-12-30T17:19:37.374Z,6.30
2018-12-30T17:22:05.828Z,4.58
2018-12-30T17:24:34.673Z,4.70
2018-12-30T17:27:03.554Z,4.20
2018-12-30T17:29:32.164Z,6.33
2018-12-30T17:32:02.158Z,5.23
2018-12-30T17:34:29.260Z,5.40
2018-12-30T17:36:58.163Z,4.15
2018-12-30T17:39:26.727Z,4.93
2018-12-30T17:41:55.215Z,4.30
2018-12-30T17:44:23.723Z,3.27
2018-12-30T17:46:52.299Z,3.27
2018-12-30T17:49:20.787Z,3.90
2018-12-30T17:51:49.511Z,4.00
2018-12-30T17:54:17.987Z,4.35
2018-12-30T17:56:46.520Z,4.13
2018-12-30T17:59:15.020Z,4.10
2018-12-30T18:01:43.539Z,4.00
2018-12-30T18:04:12.124Z,3.65
2018-12-30T18:06:40.603Z,4.63
2018-12-30T18:09:09.040Z,9.40
2018-12-30T18:11:37.946Z,11.17
2018-12-30T18:14:06.579Z,11.77
2018-12-30T18:16:35.056Z,9.83
2018-12-30T18:19:03.547Z,7.60
2018-12-30T18:21:32.104Z,6.77
2018-12-30T18:24:00.715Z,6.07
2018-12-30T18:26:29.195Z,6.13
2018-12-30T18:28:57.807Z,5.65
2018-12-30T18:31:26.268Z,4.77
2018-12-30T18:33:54.713Z,4.97
2018-12-30T18:36:23.272Z,5.27
2018-12-30T18:38:51.756Z,5.33
2018-12-30T18:41:20.332Z,5.95
2018-12-30T18:43:49.159Z,6.20
2018-12-30T18:46:18.048Z,6.47
2018-12-30T18:48:46.488Z,10.88
2018-12-30T18:51:14.935Z,7.97
2018-12-30T18:53:43.631Z,7.40
2018-12-30T18:56:12.227Z,6.80
2018-12-30T18:58:40.786Z,7.42
2018-12-30T19:01:09.370Z,9.03
2018-12-30T19:03:37.918Z,9.88
2018-12-30T19:06:06.366Z,9.13
2018-12-30T19:08:34.906Z,8.97
2018-12-30T19:11:03.647Z,8.30
2018-12-30T19:13:32.123Z,7.97
2018-12-30T19:16:00.563Z,8.03
2018-12-30T19:18:29.427Z,8.58
2018-12-30T19:20:58.446Z,6.37
2018-12-30T19:23:27.098Z,6.80
2018-12-30T19:26:00.989Z,6.10
2018-12-30T19:28:24.426Z,7.62
2018-12-30T19:30:53.170Z,5.40
2018-12-30T19:33:21.638Z,3.75
2018-12-30T19:35:50.138Z,3.80
2018-12-30T19:38:18.614Z,2.58
2018-12-30T19:42:21.998Z,2.07
2018-12-30T19:44:50.474Z,2.50
2018-12-30T19:47:19.190Z,1.70
2018-12-30T19:49:47.682Z,1.30
2018-12-30T19:52:16.129Z,1.02
2018-12-30T19:54:44.633Z,1.50
2018-12-30T19:57:13.162Z,2.30
2018-12-30T19:59:41.719Z,1.67
2018-12-30T20:02:10.203Z,1.70
2018-12-30T20:04:40.730Z,1.93
2018-12-30T20:07:07.448Z,1.80
2018-12-30T20:09:36.368Z,1.40
2018-12-30T20:12:04.884Z,2.00
2018-12-30T20:14:33.371Z,2.15
2018-12-30T20:17:02.140Z,2.10
2018-12-30T20:19:30.660Z,2.00
2018-12-30T20:21:59.100Z,2.20
2018-12-30T20:24:27.806Z,2.20
2018-12-30T20:26:56.222Z,2.73
2018-12-30T20:29:24.696Z,2.30
2018-12-30T20:31:53.220Z,2.23
2018-12-30T20:34:21.864Z,2.60
2018-12-30T20:36:50.400Z,2.90
2018-12-30T20:39:19.136Z,2.40
2018-12-30T20:41:47.672Z,2.20
2018-12-30T20:44:16.201Z,2.10
2018-12-30T20:46:44.752Z,2.10
2018-12-30T20:49:13.247Z,2.40
2018-12-30T20:51:41.675Z,2.72
2018-12-30T20:54:10.504Z,2.00
2018-12-30T20:56:38.955Z,1.55
2018-12-30T20:59:07.760Z,1.67
2018-12-30T21:01:36.247Z,2.72
2018-12-30T21:04:04.727Z,1.20
2018-12-30T21:06:33.219Z,0.88
2018-12-30T21:09:02.668Z,1.23
2018-12-30T21:11:31.155Z,1.80
2018-12-30T21:14:00.447Z,1.50
2018-12-30T21:16:28.899Z,1.57
2018-12-30T21:18:58.355Z,1.43
2018-12-30T21:21:26.799Z,1.93
2018-12-30T21:23:55.258Z,2.67
2018-12-30T21:26:23.767Z,2.22
2018-12-30T21:28:52.203Z,2.02
2018-12-30T21:31:20.660Z,1.53
2018-12-30T21:33:49.179Z,1.07
2018-12-30T21:36:18.203Z,1.17
2018-12-30T21:38:46.703Z,1.60
2018-12-30T21:41:15.239Z,3.37
2018-12-30T21:43:43.691Z,2.93
2018-12-30T21:46:12.455Z,1.50
2018-12-30T21:48:40.895Z,1.15
2018-12-30T21:51:09.395Z,0.90
2018-12-30T21:53:37.950Z,1.37
2018-12-30T21:56:06.423Z,1.12
2018-12-30T21:58:35.123Z,0.90
2018-12-30T22:01:03.712Z,1.40
2018-12-30T22:03:32.282Z,1.20
2018-12-30T22:06:00.762Z,1.10
2018-12-30T22:08:29.946Z,1.27
2018-12-30T22:10:58.382Z,1.52
2018-12-30T22:13:27.563Z,0.95
2018-12-30T22:15:56.411Z,1.20
2018-12-30T22:18:24.851Z,0.80
2018-12-30T22:20:53.307Z,0.93
2018-12-30T22:23:22.107Z,1.00
2018-12-30T22:25:50.619Z,0.63
2018-12-30T22:28:19.311Z,0.93
2018-12-30T22:30:47.791Z,0.90
2018-12-30T22:33:16.243Z,1.02
2018-12-30T22:35:44.991Z,0.80
2018-12-30T22:38:14.636Z,1.67
2018-12-30T22:40:43.461Z,0.90
2018-12-30T22:43:12.171Z,1.30
2018-12-30T22:45:40.759Z,0.70
2018-12-30T22:48:09.546Z,0.80
2018-12-30T22:50:38.031Z,1.00
2018-12-30T22:53:06.583Z,0.98
2018-12-30T22:55:35.035Z,0.90
2018-12-30T22:58:03.846Z,1.10
2018-12-30T23:00:36.836Z,1.07
2018-12-30T23:03:05.404Z,1.20
2018-12-30T23:05:34.097Z,0.80
2018-12-30T23:08:02.562Z,0.82
2018-12-30T23:10:31.083Z,0.60
2018-12-30T23:12:59.730Z,0.90
2018-12-30T23:15:28.263Z,1.10
2018-12-30T23:17:56.994Z,0.73
2018-12-30T23:20:25.430Z,1.10
2018-12-30T23:22:54.018Z,0.87
2018-12-30T23:25:22.502Z,0.70
2018-12-30T23:27:51.294Z,0.80
2018-12-30T23:30:19.794Z,0.85
2018-12-30T23:32:48.351Z,0.60
2018-12-30T23:35:16.816Z,0.70
2018-12-30T23:38:16.123Z,0.47
2018-12-30T23:40:44.590Z,0.70
2018-12-30T23:43:13.066Z,0.70
2018-12-30T23:45:41.546Z,0.67
2018-12-30T23:48:10.074Z,0.53
2018-12-30T23:50:38.514Z,0.40
2018-12-30T23:53:06.958Z,0.60
2018-12-30T23:55:35.879Z,0.50
2018-12-30T23:58:04.888Z,0.50
